sensor_id;sensor_type;location;lat;lon;timestamp;pressure;altitude;pressure_sealevel;temperature;humidity
1472;BME280;963;42.644;23.336;2022-07-22T00:00:29;94227.31;;;25.14;47.55
1472;BME280;963;42.644;23.336;2022-07-22T00:02:54;94227.16;;;24.99;47.76
1472;BME280;963;42.644;23.336;2022-07-22T00:05:20;94234.63;;;25.04;47.75
1472;BME280;963;42.644;23.336;2022-07-22T00:07:45;94239.44;;;25.00;47.99
1472;BME280;963;42.644;23.336;2022-07-22T00:10:11;94236.69;;;24.91;47.77
1472;BME280;963;42.644;23.336;2022-07-22T00:12:37;94238.16;;;24.83;48.34
1472;BME280;963;42.644;23.336;2022-07-22T00:15:04;94217.97;;;24.69;47.91
1472;BME280;963;42.644;23.336;2022-07-22T00:17:30;94225.59;;;24.80;47.40
1472;BME280;963;42.644;23.336;2022-07-22T00:19:55;94234.88;;;24.79;47.79
1472;BME280;963;42.644;23.336;2022-07-22T00:22:21;94245.63;;;24.70;47.49
1472;BME280;963;42.644;23.336;2022-07-22T00:24:46;94253.59;;;24.42;47.94
1472;BME280;963;42.644;23.336;2022-07-22T00:27:12;94239.13;;;24.49;48.17
1472;BME280;963;42.644;23.336;2022-07-22T00:29:37;94243.50;;;24.55;47.80
1472;BME280;963;42.644;23.336;2022-07-22T00:32:03;94242.00;;;24.54;47.94
1472;BME280;963;42.644;23.336;2022-07-22T00:34:28;94241.91;;;24.36;48.17
1472;BME280;963;42.644;23.336;2022-07-22T00:36:53;94261.19;;;24.35;48.45
1472;BME280;963;42.644;23.336;2022-07-22T00:39:19;94264.56;;;24.26;48.46
1472;BME280;963;42.644;23.336;2022-07-22T00:41:47;94252.75;;;24.23;48.76
1472;BME280;963;42.644;23.336;2022-07-22T00:44:12;94261.75;;;24.08;49.19
1472;BME280;963;42.644;23.336;2022-07-22T00:46:38;94261.38;;;23.87;49.53
1472;BME280;963;42.644;23.336;2022-07-22T00:49:05;94259.47;;;23.53;49.83
1472;BME280;963;42.644;23.336;2022-07-22T00:51:32;94261.41;;;23.53;49.69
1472;BME280;963;42.644;23.336;2022-07-22T00:53:58;94264.09;;;23.53;49.59
1472;BME280;963;42.644;23.336;2022-07-22T00:56:25;94239.84;;;23.44;49.75
1472;BME280;963;42.644;23.336;2022-07-22T00:58:52;94255.50;;;23.58;49.61
1472;BME280;963;42.644;23.336;2022-07-22T01:01:18;94246.47;;;23.52;49.70
1472;BME280;963;42.644;23.336;2022-07-22T01:03:44;94252.81;;;23.58;50.33
1472;BME280;963;42.644;23.336;2022-07-22T01:06:10;94245.38;;;23.62;49.81
1472;BME280;963;42.644;23.336;2022-07-22T01:08:37;94235.81;;;23.61;49.74
1472;BME280;963;42.644;23.336;2022-07-22T01:11:11;94245.69;;;23.64;49.92
1472;BME280;963;42.644;23.336;2022-07-22T01:13:37;94246.88;;;23.63;50.27
1472;BME280;963;42.644;23.336;2022-07-22T01:16:04;94249.56;;;23.63;49.99
1472;BME280;963;42.644;23.336;2022-07-22T01:18:29;94240.22;;;23.55;50.28
1472;BME280;963;42.644;23.336;2022-07-22T01:20:55;94262.81;;;23.57;49.89
1472;BME280;963;42.644;23.336;2022-07-22T01:23:20;94255.97;;;23.44;49.71
1472;BME280;963;42.644;23.336;2022-07-22T01:25:46;94243.94;;;23.35;50.29
1472;BME280;963;42.644;23.336;2022-07-22T01:28:11;94251.50;;;23.28;50.66
1472;BME280;963;42.644;23.336;2022-07-22T01:30:37;94262.91;;;23.19;51.08
1472;BME280;963;42.644;23.336;2022-07-22T01:33:02;94252.44;;;23.12;50.94
1472;BME280;963;42.644;23.336;2022-07-22T01:35:28;94252.00;;;23.01;51.15
1472;BME280;963;42.644;23.336;2022-07-22T01:37:53;94248.28;;;22.86;51.96
1472;BME280;963;42.644;23.336;2022-07-22T01:40:18;94243.38;;;22.84;51.95
1472;BME280;963;42.644;23.336;2022-07-22T01:42:44;94258.72;;;22.84;52.66
1472;BME280;963;42.644;23.336;2022-07-22T01:45:10;94240.69;;;22.71;52.52
1472;BME280;963;42.644;23.336;2022-07-22T01:47:35;94240.13;;;22.76;52.35
1472;BME280;963;42.644;23.336;2022-07-22T01:50:01;94241.00;;;22.73;53.16
1472;BME280;963;42.644;23.336;2022-07-22T01:52:27;94243.69;;;22.73;53.09
1472;BME280;963;42.644;23.336;2022-07-22T01:54:52;94253.13;;;22.78;52.98
1472;BME280;963;42.644;23.336;2022-07-22T01:57:18;94260.22;;;22.85;53.05
1472;BME280;963;42.644;23.336;2022-07-22T01:59:43;94255.16;;;22.87;52.97
1472;BME280;963;42.644;23.336;2022-07-22T02:02:09;94257.97;;;22.83;52.97
1472;BME280;963;42.644;23.336;2022-07-22T02:04:34;94253.34;;;22.84;53.41
1472;BME280;963;42.644;23.336;2022-07-22T02:06:59;94260.72;;;22.80;52.78
1472;BME280;963;42.644;23.336;2022-07-22T02:09:25;94262.47;;;22.61;53.24
1472;BME280;963;42.644;23.336;2022-07-22T02:11:50;94234.06;;;22.38;53.53
1472;BME280;963;42.644;23.336;2022-07-22T02:14:15;94245.72;;;22.57;53.91
1472;BME280;963;42.644;23.336;2022-07-22T02:16:41;94252.16;;;22.59;53.69
1472;BME280;963;42.644;23.336;2022-07-22T02:19:06;94266.75;;;22.58;53.68
1472;BME280;963;42.644;23.336;2022-07-22T02:21:32;94270.28;;;22.55;53.94
1472;BME280;963;42.644;23.336;2022-07-22T02:23:58;94263.44;;;22.54;54.30
1472;BME280;963;42.644;23.336;2022-07-22T02:26:23;94293.44;;;22.62;53.79
1472;BME280;963;42.644;23.336;2022-07-22T02:28:48;94269.56;;;22.67;53.83
1472;BME280;963;42.644;23.336;2022-07-22T02:31:14;94271.38;;;22.70;54.22
1472;BME280;963;42.644;23.336;2022-07-22T02:33:39;94263.97;;;22.74;54.40
1472;BME280;963;42.644;23.336;2022-07-22T02:36:05;94263.63;;;22.72;53.91
1472;BME280;963;42.644;23.336;2022-07-22T02:38:31;94261.16;;;22.78;54.10
1472;BME280;963;42.644;23.336;2022-07-22T02:40:56;94257.41;;;22.75;54.52
1472;BME280;963;42.644;23.336;2022-07-22T02:43:21;94258.28;;;22.72;54.37
1472;BME280;963;42.644;23.336;2022-07-22T02:45:47;94265.03;;;22.77;54.70
1472;BME280;963;42.644;23.336;2022-07-22T02:48:12;94264.50;;;22.69;55.29
1472;BME280;963;42.644;23.336;2022-07-22T02:50:45;94261.16;;;22.65;55.49
1472;BME280;963;42.644;23.336;2022-07-22T02:53:10;94264.59;;;22.53;55.48
1472;BME280;963;42.644;23.336;2022-07-22T02:55:36;94263.75;;;22.56;55.67
1472;BME280;963;42.644;23.336;2022-07-22T02:58:05;94261.59;;;22.51;55.49
1472;BME280;963;42.644;23.336;2022-07-22T03:00:31;94268.78;;;22.54;55.47
1472;BME280;963;42.644;23.336;2022-07-22T03:02:56;94256.44;;;22.57;55.57
1472;BME280;963;42.644;23.336;2022-07-22T03:05:22;94255.28;;;22.58;54.88
1472;BME280;963;42.644;23.336;2022-07-22T03:07:47;94264.72;;;22.62;55.14
1472;BME280;963;42.644;23.336;2022-07-22T03:10:13;94256.03;;;22.58;55.21
1472;BME280;963;42.644;23.336;2022-07-22T03:12:39;94255.19;;;22.49;54.99
1472;BME280;963;42.644;23.336;2022-07-22T03:15:05;94253.25;;;22.49;54.66
1472;BME280;963;42.644;23.336;2022-07-22T03:17:35;94257.19;;;22.57;55.04
1472;BME280;963;42.644;23.336;2022-07-22T03:20:05;94259.56;;;22.55;55.46
1472;BME280;963;42.644;23.336;2022-07-22T03:22:31;94259.69;;;22.52;55.95
1472;BME280;963;42.644;23.336;2022-07-22T03:24:56;94265.03;;;22.52;56.26
1472;BME280;963;42.644;23.336;2022-07-22T03:27:22;94258.94;;;22.51;56.29
1472;BME280;963;42.644;23.336;2022-07-22T03:29:47;94270.28;;;22.55;56.27
1472;BME280;963;42.644;23.336;2022-07-22T03:32:13;94268.69;;;22.58;55.80
1472;BME280;963;42.644;23.336;2022-07-22T03:34:38;94260.84;;;22.63;55.39
1472;BME280;963;42.644;23.336;2022-07-22T03:37:03;94269.22;;;22.65;55.28
1472;BME280;963;42.644;23.336;2022-07-22T03:39:29;94256.44;;;22.57;55.45
1472;BME280;963;42.644;23.336;2022-07-22T03:41:54;94261.94;;;22.53;55.78
1472;BME280;963;42.644;23.336;2022-07-22T03:44:20;94262.47;;;22.48;55.61
1472;BME280;963;42.644;23.336;2022-07-22T03:46:45;94276.09;;;22.54;55.66
1472;BME280;963;42.644;23.336;2022-07-22T03:49:11;94274.47;;;22.56;55.60
1472;BME280;963;42.644;23.336;2022-07-22T03:51:36;94280.78;;;22.62;55.16
1472;BME280;963;42.644;23.336;2022-07-22T03:54:02;94281.44;;;22.66;55.42
1472;BME280;963;42.644;23.336;2022-07-22T03:56:27;94263.63;;;22.60;55.96
1472;BME280;963;42.644;23.336;2022-07-22T03:58:52;94310.41;;;22.71;55.88
1472;BME280;963;42.644;23.336;2022-07-22T04:01:18;94278.00;;;22.78;55.68
1472;BME280;963;42.644;23.336;2022-07-22T04:03:43;94275.44;;;22.88;55.82
1472;BME280;963;42.644;23.336;2022-07-22T04:06:09;94282.81;;;22.96;55.90
1472;BME280;963;42.644;23.336;2022-07-22T04:08:34;94298.06;;;22.99;55.61
1472;BME280;963;42.644;23.336;2022-07-22T04:11:00;94289.88;;;23.03;54.68
1472;BME280;963;42.644;23.336;2022-07-22T04:13:25;94291.63;;;23.10;54.76
1472;BME280;963;42.644;23.336;2022-07-22T04:15:50;94285.25;;;23.16;55.18
1472;BME280;963;42.644;23.336;2022-07-22T04:18:16;94298.38;;;23.14;54.89
1472;BME280;963;42.644;23.336;2022-07-22T04:20:42;94292.56;;;23.16;55.21
1472;BME280;963;42.644;23.336;2022-07-22T04:23:08;94301.44;;;23.25;54.97
1472;BME280;963;42.644;23.336;2022-07-22T04:25:33;94293.38;;;23.25;55.21
1472;BME280;963;42.644;23.336;2022-07-22T04:27:59;94283.53;;;23.22;54.87
1472;BME280;963;42.644;23.336;2022-07-22T04:30:25;94299.59;;;23.35;55.32
1472;BME280;963;42.644;23.336;2022-07-22T04:32:50;94293.78;;;23.36;55.02
1472;BME280;963;42.644;23.336;2022-07-22T04:35:16;94296.69;;;23.42;55.03
1472;BME280;963;42.644;23.336;2022-07-22T04:37:42;94302.81;;;23.43;54.67
1472;BME280;963;42.644;23.336;2022-07-22T04:40:08;94302.25;;;23.48;55.13
1472;BME280;963;42.644;23.336;2022-07-22T04:42:33;94314.16;;;23.47;54.75
1472;BME280;963;42.644;23.336;2022-07-22T04:44:59;94320.16;;;23.51;54.34
1472;BME280;963;42.644;23.336;2022-07-22T04:47:24;94314.69;;;23.54;53.89
1472;BME280;963;42.644;23.336;2022-07-22T04:49:50;94314.25;;;23.56;54.04
1472;BME280;963;42.644;23.336;2022-07-22T04:52:15;94319.38;;;23.63;53.63
1472;BME280;963;42.644;23.336;2022-07-22T04:54:41;94315.84;;;23.66;52.95
1472;BME280;963;42.644;23.336;2022-07-22T04:57:06;94322.56;;;23.70;53.22
1472;BME280;963;42.644;23.336;2022-07-22T04:59:32;94306.72;;;23.63;53.12
1472;BME280;963;42.644;23.336;2022-07-22T05:01:57;94321.31;;;23.62;53.21
1472;BME280;963;42.644;23.336;2022-07-22T05:04:22;94323.31;;;23.71;52.73
1472;BME280;963;42.644;23.336;2022-07-22T05:06:48;94318.56;;;23.75;52.90
1472;BME280;963;42.644;23.336;2022-07-22T05:09:13;94326.84;;;23.81;52.53
1472;BME280;963;42.644;23.336;2022-07-22T05:11:39;94319.59;;;23.90;51.92
1472;BME280;963;42.644;23.336;2022-07-22T05:14:04;94330.97;;;23.94;51.92
1472;BME280;963;42.644;23.336;2022-07-22T05:16:29;94321.72;;;23.95;51.58
1472;BME280;963;42.644;23.336;2022-07-22T05:18:55;94313.53;;;23.99;51.36
1472;BME280;963;42.644;23.336;2022-07-22T05:21:21;94325.09;;;24.09;51.48
1472;BME280;963;42.644;23.336;2022-07-22T05:23:46;94329.56;;;24.12;51.12
1472;BME280;963;42.644;23.336;2022-07-22T05:26:11;94323.22;;;24.18;50.85
1472;BME280;963;42.644;23.336;2022-07-22T05:28:37;94341.16;;;24.21;50.92
1472;BME280;963;42.644;23.336;2022-07-22T05:31:02;94326.09;;;24.24;50.48
1472;BME280;963;42.644;23.336;2022-07-22T05:33:28;94332.84;;;24.28;50.31
1472;BME280;963;42.644;23.336;2022-07-22T05:35:53;94339.59;;;24.33;50.36
1472;BME280;963;42.644;23.336;2022-07-22T05:38:19;94331.72;;;24.39;50.43
1472;BME280;963;42.644;23.336;2022-07-22T05:40:44;94349.22;;;24.43;49.81
1472;BME280;963;42.644;23.336;2022-07-22T05:43:10;94332.47;;;24.39;50.57
1472;BME280;963;42.644;23.336;2022-07-22T05:45:35;94359.09;;;24.24;50.48
1472;BME280;963;42.644;23.336;2022-07-22T05:48:00;94328.84;;;24.33;51.05
1472;BME280;963;42.644;23.336;2022-07-22T05:50:27;94327.13;;;24.26;50.84
1472;BME280;963;42.644;23.336;2022-07-22T05:52:52;94332.47;;;24.39;50.53
1472;BME280;963;42.644;23.336;2022-07-22T05:55:18;94340.84;;;24.41;50.74
1472;BME280;963;42.644;23.336;2022-07-22T05:57:43;94326.78;;;24.37;51.31
1472;BME280;963;42.644;23.336;2022-07-22T06:00:09;94332.47;;;24.39;51.22
1472;BME280;963;42.644;23.336;2022-07-22T06:02:34;94322.69;;;24.54;51.25
1472;BME280;963;42.644;23.336;2022-07-22T06:05:00;94333.56;;;24.51;51.83
1472;BME280;963;42.644;23.336;2022-07-22T06:07:26;94341.53;;;24.63;51.62
1472;BME280;963;42.644;23.336;2022-07-22T06:09:52;94334.88;;;24.77;51.13
1472;BME280;963;42.644;23.336;2022-07-22T06:12:18;94331.31;;;24.89;50.16
1472;BME280;963;42.644;23.336;2022-07-22T06:14:43;94338.72;;;24.98;50.54
1472;BME280;963;42.644;23.336;2022-07-22T06:17:09;94333.03;;;25.05;50.69
1472;BME280;963;42.644;23.336;2022-07-22T06:19:34;94325.88;;;25.02;50.61
1472;BME280;963;42.644;23.336;2022-07-22T06:21:59;94319.44;;;24.69;51.38
1472;BME280;963;42.644;23.336;2022-07-22T06:24:25;94332.69;;;24.94;50.60
1472;BME280;963;42.644;23.336;2022-07-22T06:26:50;94329.75;;;25.10;50.51
1472;BME280;963;42.644;23.336;2022-07-22T06:29:16;94329.75;;;25.10;50.19
1472;BME280;963;42.644;23.336;2022-07-22T06:31:42;94333.06;;;25.23;49.45
1472;BME280;963;42.644;23.336;2022-07-22T06:34:07;94324.72;;;25.40;49.09
1472;BME280;963;42.644;23.336;2022-07-22T06:36:33;94323.38;;;25.53;49.17
1472;BME280;963;42.644;23.336;2022-07-22T06:38:58;94324.44;;;25.38;49.50
1472;BME280;963;42.644;23.336;2022-07-22T06:41:24;94333.72;;;25.64;49.45
1472;BME280;963;42.644;23.336;2022-07-22T06:43:49;94326.00;;;25.66;48.52
1472;BME280;963;42.644;23.336;2022-07-22T06:46:15;94327.03;;;25.78;48.44
1472;BME280;963;42.644;23.336;2022-07-22T06:48:40;94326.56;;;25.89;48.01
1472;BME280;963;42.644;23.336;2022-07-22T06:51:06;94328.22;;;25.68;48.29
1472;BME280;963;42.644;23.336;2022-07-22T06:53:32;94327.28;;;25.98;47.92
1472;BME280;963;42.644;23.336;2022-07-22T06:55:58;94328.31;;;26.19;47.36
1472;BME280;963;42.644;23.336;2022-07-22T06:58:23;94332.03;;;26.31;47.11
1472;BME280;963;42.644;23.336;2022-07-22T07:00:49;94325.31;;;26.35;46.78
1472;BME280;963;42.644;23.336;2022-07-22T07:03:14;94323.31;;;26.54;46.08
1472;BME280;963;42.644;23.336;2022-07-22T07:05:40;94326.75;;;26.55;46.50
1472;BME280;963;42.644;23.336;2022-07-22T07:08:05;94313.22;;;26.64;45.77
1472;BME280;963;42.644;23.336;2022-07-22T07:10:31;94317.06;;;26.81;45.38
1472;BME280;963;42.644;23.336;2022-07-22T07:12:57;94344.94;;;26.87;44.22
1472;BME280;963;42.644;23.336;2022-07-22T07:15:24;94322.09;;;26.97;44.23
1472;BME280;963;42.644;23.336;2022-07-22T07:17:50;94328.63;;;27.15;44.38
1472;BME280;963;42.644;23.336;2022-07-22T07:20:16;94330.34;;;27.27;43.69
1472;BME280;963;42.644;23.336;2022-07-22T07:22:41;94324.03;;;27.30;43.73
1472;BME280;963;42.644;23.336;2022-07-22T07:25:08;94333.09;;;27.41;43.72
1472;BME280;963;42.644;23.336;2022-07-22T07:27:34;94329.91;;;27.52;43.56
1472;BME280;963;42.644;23.336;2022-07-22T07:29:59;94340.53;;;27.56;42.78
1472;BME280;963;42.644;23.336;2022-07-22T07:32:25;94331.22;;;27.57;42.69
1472;BME280;963;42.644;23.336;2022-07-22T07:34:50;94328.56;;;27.71;43.29
1472;BME280;963;42.644;23.336;2022-07-22T07:37:16;94334.81;;;27.78;43.00
1472;BME280;963;42.644;23.336;2022-07-22T07:39:41;94321.59;;;27.80;42.65
1472;BME280;963;42.644;23.336;2022-07-22T07:42:07;94333.31;;;27.77;41.91
1472;BME280;963;42.644;23.336;2022-07-22T07:44:32;94323.94;;;27.87;42.47
1472;BME280;963;42.644;23.336;2022-07-22T07:46:58;94338.03;;;27.91;42.17
1472;BME280;963;42.644;23.336;2022-07-22T07:49:23;94331.97;;;27.96;41.18
1472;BME280;963;42.644;23.336;2022-07-22T07:51:49;94343.09;;;28.13;41.50
1472;BME280;963;42.644;23.336;2022-07-22T07:54:14;94345.69;;;28.22;41.63
1472;BME280;963;42.644;23.336;2022-07-22T07:56:40;94351.34;;;28.33;41.36
1472;BME280;963;42.644;23.336;2022-07-22T07:59:05;94332.31;;;28.42;41.27
1472;BME280;963;42.644;23.336;2022-07-22T08:01:31;94330.44;;;28.33;41.53
1472;BME280;963;42.644;23.336;2022-07-22T08:03:56;94347.06;;;28.41;40.66
1472;BME280;963;42.644;23.336;2022-07-22T08:06:22;94336.94;;;28.56;40.47
1472;BME280;963;42.644;23.336;2022-07-22T08:08:47;94330.13;;;28.61;39.70
1472;BME280;963;42.644;23.336;2022-07-22T08:11:13;94352.25;;;28.74;39.48
1472;BME280;963;42.644;23.336;2022-07-22T08:13:38;94335.47;;;28.70;39.18
1472;BME280;963;42.644;23.336;2022-07-22T08:16:04;94332.75;;;28.70;39.29
1472;BME280;963;42.644;23.336;2022-07-22T08:18:29;94333.50;;;28.71;39.55
1472;BME280;963;42.644;23.336;2022-07-22T08:20:55;94341.31;;;28.83;39.07
1472;BME280;963;42.644;23.336;2022-07-22T08:23:21;94338.25;;;28.90;38.84
1472;BME280;963;42.644;23.336;2022-07-22T08:25:46;94337.84;;;28.98;38.30
1472;BME280;963;42.644;23.336;2022-07-22T08:28:12;94340.47;;;29.07;37.83
1472;BME280;963;42.644;23.336;2022-07-22T08:30:38;94341.00;;;29.11;37.08
1472;BME280;963;42.644;23.336;2022-07-22T08:33:05;94340.59;;;29.18;37.00
1472;BME280;963;42.644;23.336;2022-07-22T08:35:31;94341.78;;;28.97;38.29
1472;BME280;963;42.644;23.336;2022-07-22T08:37:56;94346.63;;;29.07;37.66
1472;BME280;963;42.644;23.336;2022-07-22T08:40:22;94339.78;;;29.12;38.11
1472;BME280;963;42.644;23.336;2022-07-22T08:42:49;94334.09;;;29.10;37.98
1472;BME280;963;42.644;23.336;2022-07-22T08:45:15;94346.16;;;29.29;37.29
1472;BME280;963;42.644;23.336;2022-07-22T08:47:44;94343.88;;;29.42;37.05
1472;BME280;963;42.644;23.336;2022-07-22T08:50:10;94331.72;;;29.52;37.47
1472;BME280;963;42.644;23.336;2022-07-22T08:52:36;94338.75;;;29.65;36.15
1472;BME280;963;42.644;23.336;2022-07-22T08:55:03;94340.97;;;29.66;36.18
1472;BME280;963;42.644;23.336;2022-07-22T08:57:29;94341.63;;;29.76;35.86
1472;BME280;963;42.644;23.336;2022-07-22T08:59:56;94351.78;;;29.81;35.96
1472;BME280;963;42.644;23.336;2022-07-22T09:02:23;94339.00;;;29.87;35.24
1472;BME280;963;42.644;23.336;2022-07-22T09:04:57;94344.22;;;29.91;36.26
1472;BME280;963;42.644;23.336;2022-07-22T09:09:58;94348.09;;;30.04;36.36
1472;BME280;963;42.644;23.336;2022-07-22T09:12:24;94345.25;;;30.13;36.38
1472;BME280;963;42.644;23.336;2022-07-22T09:14:51;94340.28;;;30.12;35.75
1472;BME280;963;42.644;23.336;2022-07-22T09:17:24;94335.41;;;30.16;34.94
1472;BME280;963;42.644;23.336;2022-07-22T09:19:49;94343.31;;;30.20;35.24
1472;BME280;963;42.644;23.336;2022-07-22T09:22:33;94355.50;;;30.30;35.01
1472;BME280;963;42.644;23.336;2022-07-22T09:27:50;94334.56;;;30.36;34.41
1472;BME280;963;42.644;23.336;2022-07-22T09:30:22;94332.81;;;30.33;34.28
1472;BME280;963;42.644;23.336;2022-07-22T09:32:49;94340.78;;;30.42;35.01
1472;BME280;963;42.644;23.336;2022-07-22T09:35:16;94328.41;;;30.35;34.66
1472;BME280;963;42.644;23.336;2022-07-22T09:37:51;94334.25;;;30.54;34.99
1472;BME280;963;42.644;23.336;2022-07-22T09:40:22;94335.22;;;30.51;34.45
1472;BME280;963;42.644;23.336;2022-07-22T09:42:55;94335.84;;;30.66;34.36
1472;BME280;963;42.644;23.336;2022-07-22T09:45:23;94336.16;;;30.74;34.13
1472;BME280;963;42.644;23.336;2022-07-22T09:47:49;94325.56;;;30.82;34.48
1472;BME280;963;42.644;23.336;2022-07-22T09:50:34;94331.56;;;30.86;34.12
1472;BME280;963;42.644;23.336;2022-07-22T09:53:00;94339.53;;;30.95;33.73
1472;BME280;963;42.644;23.336;2022-07-22T09:55:27;94326.91;;;30.92;34.02
1472;BME280;963;42.644;23.336;2022-07-22T09:57:55;94326.47;;;31.04;33.84
1472;BME280;963;42.644;23.336;2022-07-22T10:00:23;94336.66;;;31.15;34.31
1472;BME280;963;42.644;23.336;2022-07-22T10:02:49;94319.22;;;31.27;33.74
1472;BME280;963;42.644;23.336;2022-07-22T10:05:18;94326.94;;;31.34;33.98
1472;BME280;963;42.644;23.336;2022-07-22T10:07:45;94327.19;;;31.42;33.68
1472;BME280;963;42.644;23.336;2022-07-22T10:10:13;94331.19;;;31.47;33.15
1472;BME280;963;42.644;23.336;2022-07-22T10:12:41;94322.50;;;31.42;33.37
1472;BME280;963;42.644;23.336;2022-07-22T10:15:08;94317.56;;;31.47;34.13
1472;BME280;963;42.644;23.336;2022-07-22T10:17:36;94309.19;;;31.56;33.95
1472;BME280;963;42.644;23.336;2022-07-22T10:20:04;94307.22;;;31.51;33.18
1472;BME280;963;42.644;23.336;2022-07-22T10:25:07;94315.13;;;31.49;33.06
1472;BME280;963;42.644;23.336;2022-07-22T10:30:14;94300.28;;;31.50;33.21
1472;BME280;963;42.644;23.336;2022-07-22T10:32:40;94312.91;;;31.58;32.94
1472;BME280;963;42.644;23.336;2022-07-22T10:40:15;94278.41;;;31.87;32.20
1472;BME280;963;42.644;23.336;2022-07-22T10:45:47;94312.81;;;31.95;32.10
1472;BME280;963;42.644;23.336;2022-07-22T10:48:17;94314.28;;;31.96;32.42
1472;BME280;963;42.644;23.336;2022-07-22T10:50:46;94302.72;;;32.07;32.70
1472;BME280;963;42.644;23.336;2022-07-22T10:53:25;94303.97;;;32.28;32.65
1472;BME280;963;42.644;23.336;2022-07-22T10:56:14;94296.81;;;32.31;31.89
1472;BME280;963;42.644;23.336;2022-07-22T10:58:40;94294.09;;;32.42;31.72
1472;BME280;963;42.644;23.336;2022-07-22T11:01:09;94290.63;;;32.47;32.10
1472;BME280;963;42.644;23.336;2022-07-22T11:03:38;94312.66;;;32.72;32.41
1472;BME280;963;42.644;23.336;2022-07-22T11:06:14;94297.03;;;33.00;31.82
1472;BME280;963;42.644;23.336;2022-07-22T11:08:40;94295.97;;;33.37;31.23
1472;BME280;963;42.644;23.336;2022-07-22T11:11:06;94288.06;;;33.80;31.12
1472;BME280;963;42.644;23.336;2022-07-22T11:13:32;94294.81;;;33.84;30.85
1472;BME280;963;42.644;23.336;2022-07-22T11:16:17;94300.50;;;33.86;30.39
1472;BME280;963;42.644;23.336;2022-07-22T11:18:47;94299.72;;;33.80;30.18
1472;BME280;963;42.644;23.336;2022-07-22T11:21:18;94298.72;;;33.95;30.02
1472;BME280;963;42.644;23.336;2022-07-22T11:23:44;94291.28;;;33.90;30.70
1472;BME280;963;42.644;23.336;2022-07-22T11:26:15;94283.97;;;34.09;30.38
1472;BME280;963;42.644;23.336;2022-07-22T11:28:42;94289.34;;;33.84;29.96
1472;BME280;963;42.644;23.336;2022-07-22T11:31:09;94294.38;;;34.10;30.58
1472;BME280;963;42.644;23.336;2022-07-22T11:33:35;94288.38;;;34.17;30.07
1472;BME280;963;42.644;23.336;2022-07-22T11:36:08;94289.06;;;34.29;29.64
1472;BME280;963;42.644;23.336;2022-07-22T11:38:54;94282.03;;;34.39;29.79
1472;BME280;963;42.644;23.336;2022-07-22T11:41:20;94264.56;;;34.12;29.95
1472;BME280;963;42.644;23.336;2022-07-22T11:43:48;94266.47;;;34.29;29.81
1472;BME280;963;42.644;23.336;2022-07-22T11:46:15;94285.47;;;34.45;29.46
1472;BME280;963;42.644;23.336;2022-07-22T11:48:42;94291.47;;;34.38;29.84
1472;BME280;963;42.644;23.336;2022-07-22T11:51:10;94289.13;;;34.54;29.65
1472;BME280;963;42.644;23.336;2022-07-22T11:53:40;94279.91;;;34.57;29.47
1472;BME280;963;42.644;23.336;2022-07-22T11:56:07;94283.06;;;34.36;29.91
1472;BME280;963;42.644;23.336;2022-07-22T11:58:34;94257.56;;;34.53;29.04
1472;BME280;963;42.644;23.336;2022-07-22T12:00:59;94270.81;;;34.73;29.48
1472;BME280;963;42.644;23.336;2022-07-22T12:03:25;94282.22;;;34.77;29.48
1472;BME280;963;42.644;23.336;2022-07-22T12:05:51;94260.47;;;34.90;29.52
1472;BME280;963;42.644;23.336;2022-07-22T12:08:16;94266.75;;;34.85;29.08
1472;BME280;963;42.644;23.336;2022-07-22T12:10:42;94260.03;;;35.10;28.91
1472;BME280;963;42.644;23.336;2022-07-22T12:13:11;94259.31;;;35.29;29.42
1472;BME280;963;42.644;23.336;2022-07-22T12:15:37;94260.91;;;35.00;28.96
1472;BME280;963;42.644;23.336;2022-07-22T12:18:20;94266.56;;;35.26;29.13
1472;BME280;963;42.644;23.336;2022-07-22T12:20:47;94256.03;;;35.36;28.75
1472;BME280;963;42.644;23.336;2022-07-22T12:23:12;94255.53;;;35.56;28.54
1472;BME280;963;42.644;23.336;2022-07-22T12:25:59;94247.97;;;35.81;27.77
1472;BME280;963;42.644;23.336;2022-07-22T12:28:25;94255.00;;;35.39;28.22
1472;BME280;963;42.644;23.336;2022-07-22T12:30:55;94264.34;;;34.76;29.14
1472;BME280;963;42.644;23.336;2022-07-22T12:33:22;94248.94;;;35.03;29.00
1472;BME280;963;42.644;23.336;2022-07-22T12:36:00;94258.19;;;35.19;28.81
1472;BME280;963;42.644;23.336;2022-07-22T12:38:25;94254.41;;;35.22;28.46
1472;BME280;963;42.644;23.336;2022-07-22T12:40:51;94245.91;;;35.50;28.42
1472;BME280;963;42.644;23.336;2022-07-22T12:43:17;94254.81;;;35.75;28.11
1472;BME280;963;42.644;23.336;2022-07-22T12:45:42;94239.50;;;35.85;28.31
1472;BME280;963;42.644;23.336;2022-07-22T12:48:09;94252.16;;;35.88;28.36
1472;BME280;963;42.644;23.336;2022-07-22T12:50:53;94246.94;;;36.03;27.68
1472;BME280;963;42.644;23.336;2022-07-22T12:53:18;94242.91;;;36.23;28.32
1472;BME280;963;42.644;23.336;2022-07-22T12:55:56;94248.50;;;36.49;27.47
1472;BME280;963;42.644;23.336;2022-07-22T12:58:24;94242.06;;;36.28;27.67
1472;BME280;963;42.644;23.336;2022-07-22T13:00:52;94238.22;;;35.67;27.73
1472;BME280;963;42.644;23.336;2022-07-22T13:03:19;94249.31;;;35.75;27.88
1472;BME280;963;42.644;23.336;2022-07-22T13:05:56;94237.53;;;35.98;27.19
1472;BME280;963;42.644;23.336;2022-07-22T13:08:22;94233.63;;;35.94;26.64
1472;BME280;963;42.644;23.336;2022-07-22T13:10:51;94249.91;;;35.67;27.27
1472;BME280;963;42.644;23.336;2022-07-22T13:13:22;94252.34;;;35.28;27.73
1472;BME280;963;42.644;23.336;2022-07-22T13:15:48;94261.63;;;35.00;27.43
1472;BME280;963;42.644;23.336;2022-07-22T13:18:15;94255.00;;;35.15;27.40
1472;BME280;963;42.644;23.336;2022-07-22T13:20:40;94248.50;;;35.18;26.94
1472;BME280;963;42.644;23.336;2022-07-22T13:23:06;94244.06;;;35.15;27.35
1472;BME280;963;42.644;23.336;2022-07-22T13:25:31;94253.97;;;35.18;26.82
1472;BME280;963;42.644;23.336;2022-07-22T13:27:58;94261.44;;;35.42;26.56
1472;BME280;963;42.644;23.336;2022-07-22T13:30:23;94249.41;;;35.69;26.75
1472;BME280;963;42.644;23.336;2022-07-22T13:32:50;94256.78;;;35.36;26.44
1472;BME280;963;42.644;23.336;2022-07-22T13:35:16;94260.25;;;35.37;26.47
1472;BME280;963;42.644;23.336;2022-07-22T13:37:42;94258.47;;;35.58;26.96